Time;durP1;ratioP1;P1;durP2;ratioP2;P2;SDS_P1;SDS_P2;PMS_P1;PMS_P2;Temp;Humidity;BMP_temperature;BMP_pressure;BME280_temperature;BME280_humidity;BME280_pressure;Samples;Min_cycle;Max_cycle;Signal;HPM_P1;HPM_P2
2021/11/19 00:02:07;;;;;;;3.53;0.93;;;;;;;;;;5008167;28;20131;-82
2021/11/19 00:04:34;;;;;;;3.42;0.90;;;;;;;;;;5002148;28;20058;-83
2021/11/19 00:07:01;;;;;;;4.55;1.00;;;;;;;;;;5004498;28;20057;-82
2021/11/19 00:09:28;;;;;;;2.25;0.68;;;;;;;;;;4991533;28;20494;-84
2021/11/19 00:11:54;;;;;;;3.78;0.77;;;;;;;;;;5004648;28;20430;-82
2021/11/19 00:14:21;;;;;;;3.03;0.85;;;;;;;;;;5007883;28;20042;-82
2021/11/19 00:16:49;;;;;;;2.75;0.90;;;;;;;;;;5010634;28;20068;-82
2021/11/19 00:19:16;;;;;;;2.75;0.80;;;;;;;;;;5007330;28;20068;-82
2021/11/19 00:21:43;;;;;;;3.83;0.90;;;;;;;;;;5004521;28;20057;-83
2021/11/19 00:24:10;;;;;;;3.95;0.90;;;;;;;;;;5008238;28;20555;-85
2021/11/19 00:26:39;;;;;;;3.40;1.05;;;;;;;;;;5009721;28;20132;-84
2021/11/19 00:29:05;;;;;;;1.20;0.60;;;;;;;;;;5017300;28;20128;-82
2021/11/19 00:31:32;;;;;;;2.47;0.90;;;;;;;;;;5009933;28;20053;-83
2021/11/19 00:33:58;;;;;;;2.35;0.63;;;;;;;;;;5005138;28;20540;-83
2021/11/19 00:36:26;;;;;;;1.98;0.70;;;;;;;;;;5007791;28;20069;-83
2021/11/19 00:38:54;;;;;;;3.35;0.88;;;;;;;;;;5004294;28;20061;-83
2021/11/19 00:41:22;;;;;;;2.50;0.80;;;;;;;;;;5010236;28;20066;-84
2021/11/19 00:43:48;;;;;;;2.55;0.77;;;;;;;;;;5007205;28;20131;-82
2021/11/19 00:46:15;;;;;;;2.80;0.73;;;;;;;;;;5004264;28;20061;-83
2021/11/19 00:48:42;;;;;;;4.43;0.85;;;;;;;;;;5013924;28;20049;-83
2021/11/19 00:51:19;;;;;;;3.20;0.80;;;;;;;;;;5010844;28;20516;-82
2021/11/19 00:53:47;;;;;;;3.65;1.35;;;;;;;;;;5006590;28;20097;-83
2021/11/19 00:56:15;;;;;;;2.50;0.77;;;;;;;;;;5005837;28;20057;-83
2021/11/19 00:58:42;;;;;;;3.83;0.75;;;;;;;;;;5009809;28;20435;-85
2021/11/19 01:01:13;;;;;;;2.97;0.70;;;;;;;;;;5010061;28;20054;-85
2021/11/19 01:03:39;;;;;;;2.20;0.75;;;;;;;;;;5010336;28;20100;-84
2021/11/19 01:06:06;;;;;;;1.95;0.70;;;;;;;;;;5006103;28;21276;-84
2021/11/19 01:08:32;;;;;;;2.83;0.60;;;;;;;;;;5009814;28;20073;-82
2021/11/19 01:11:00;;;;;;;4.40;1.13;;;;;;;;;;5012639;28;20042;-82
2021/11/19 01:13:28;;;;;;;4.47;0.80;;;;;;;;;;5010799;28;20454;-82
2021/11/19 01:15:56;;;;;;;3.58;0.80;;;;;;;;;;5007136;28;20132;-81
2021/11/19 01:18:26;;;;;;;4.20;0.88;;;;;;;;;;5009256;28;20666;-83
2021/11/19 01:20:55;;;;;;;2.50;0.90;;;;;;;;;;5007229;28;20450;-82
2021/11/19 01:23:22;;;;;;;2.65;0.73;;;;;;;;;;5008428;28;20065;-82
2021/11/19 01:25:51;;;;;;;2.55;0.82;;;;;;;;;;5011910;28;20565;-81
2021/11/19 01:28:18;;;;;;;2.05;0.88;;;;;;;;;;5010349;28;20085;-82
2021/11/19 01:30:58;;;;;;;1.40;0.60;;;;;;;;;;5005645;28;20046;-80
2021/11/19 01:33:25;;;;;;;2.55;0.63;;;;;;;;;;5010275;28;20100;-83
2021/11/19 01:35:52;;;;;;;3.20;0.82;;;;;;;;;;5008402;28;20099;-83
2021/11/19 01:38:19;;;;;;;3.28;0.90;;;;;;;;;;5008923;28;20058;-82
2021/11/19 01:40:48;;;;;;;2.50;0.80;;;;;;;;;;5009381;28;20065;-84
2021/11/19 01:43:15;;;;;;;3.47;0.82;;;;;;;;;;5010329;28;20065;-84
2021/11/19 01:45:47;;;;;;;2.10;1.15;;;;;;;;;;5008471;28;20088;-83
2021/11/19 01:48:14;;;;;;;4.00;0.95;;;;;;;;;;5002984;28;21233;-83
2021/11/19 01:50:41;;;;;;;3.42;0.90;;;;;;;;;;5006475;28;20498;-83
2021/11/19 01:53:07;;;;;;;5.80;0.80;;;;;;;;;;5006000;28;20109;-85
2021/11/19 01:55:36;;;;;;;2.15;0.88;;;;;;;;;;5008541;28;20100;-85
2021/11/19 01:58:08;;;;;;;2.63;0.75;;;;;;;;;;5006342;28;20101;-84
2021/11/19 02:00:34;;;;;;;1.63;0.75;;;;;;;;;;5007111;28;20096;-85
2021/11/19 02:03:01;;;;;;;2.50;0.63;;;;;;;;;;5008214;28;20097;-85
2021/11/19 02:05:30;;;;;;;2.88;0.60;;;;;;;;;;5007406;28;20072;-85
2021/11/19 02:07:59;;;;;;;1.02;0.40;;;;;;;;;;5001750;28;20128;-85
2021/11/19 02:10:26;;;;;;;1.23;0.50;;;;;;;;;;5005399;28;20064;-84
2021/11/19 02:12:59;;;;;;;3.20;0.85;;;;;;;;;;5009417;28;20507;-85
2021/11/19 02:15:35;;;;;;;2.05;0.80;;;;;;;;;;5012069;28;20058;-86
2021/11/19 02:18:12;;;;;;;1.45;0.60;;;;;;;;;;5005578;28;20058;-85
2021/11/19 02:20:40;;;;;;;2.17;0.60;;;;;;;;;;5010063;28;20065;-85
2021/11/19 02:23:12;;;;;;;2.25;0.50;;;;;;;;;;5008319;28;20240;-85
2021/11/19 02:25:41;;;;;;;1.60;0.70;;;;;;;;;;4992163;28;20065;-84
2021/11/19 02:28:10;;;;;;;4.03;0.70;;;;;;;;;;5007071;28;20038;-83
2021/11/19 02:30:48;;;;;;;2.30;0.57;;;;;;;;;;5007883;28;20050;-85
2021/11/19 02:33:15;;;;;;;1.45;0.50;;;;;;;;;;5004368;28;20514;-85
2021/11/19 02:35:49;;;;;;;1.67;0.68;;;;;;;;;;5006511;28;20520;-83
2021/11/19 02:38:15;;;;;;;4.32;1.00;;;;;;;;;;4989770;28;20516;-84
2021/11/19 02:40:43;;;;;;;3.35;0.70;;;;;;;;;;5007216;28;20058;-82
2021/11/19 02:43:30;;;;;;;3.10;0.63;;;;;;;;;;5009599;28;20066;-84
2021/11/19 02:45:56;;;;;;;2.42;0.52;;;;;;;;;;4995433;28;20058;-83
2021/11/19 02:48:24;;;;;;;3.33;0.68;;;;;;;;;;5008736;28;20061;-85
2021/11/19 02:50:51;;;;;;;3.25;0.82;;;;;;;;;;5006989;28;20085;-83
2021/11/19 02:53:18;;;;;;;2.60;0.50;;;;;;;;;;5006994;28;20077;-84
2021/11/19 02:55:46;;;;;;;2.05;0.70;;;;;;;;;;5006857;28;20115;-84
2021/11/19 02:58:16;;;;;;;2.22;0.68;;;;;;;;;;5007752;28;20042;-84
2021/11/19 03:00:56;;;;;;;1.52;0.40;;;;;;;;;;5012179;28;20096;-83
2021/11/19 03:03:23;;;;;;;4.05;0.80;;;;;;;;;;5003452;28;20100;-83
2021/11/19 03:05:50;;;;;;;1.98;0.57;;;;;;;;;;5004860;28;20057;-85
2021/11/19 03:08:16;;;;;;;3.25;0.70;;;;;;;;;;5005161;28;20080;-85
2021/11/19 03:10:45;;;;;;;3.00;0.60;;;;;;;;;;5005343;28;20636;-84
2021/11/19 03:13:13;;;;;;;1.30;0.50;;;;;;;;;;5011969;28;20508;-84
2021/11/19 03:15:43;;;;;;;2.70;0.52;;;;;;;;;;5007288;28;20034;-84
2021/11/19 03:18:11;;;;;;;1.40;0.52;;;;;;;;;;5005651;28;20092;-84
2021/11/19 03:20:38;;;;;;;2.58;0.50;;;;;;;;;;5011186;28;20065;-83
2021/11/19 03:23:04;;;;;;;3.92;0.70;;;;;;;;;;5004882;28;20062;-83
2021/11/19 03:25:32;;;;;;;3.83;1.10;;;;;;;;;;4989624;28;20464;-85
2021/11/19 03:27:59;;;;;;;2.17;0.57;;;;;;;;;;4998239;28;20058;-84
2021/11/19 03:30:26;;;;;;;3.55;0.65;;;;;;;;;;5007020;28;20061;-83
2021/11/19 03:32:53;;;;;;;2.83;0.70;;;;;;;;;;5004017;28;20072;-84
2021/11/19 03:35:21;;;;;;;1.67;0.50;;;;;;;;;;5006109;28;20460;-85
2021/11/19 03:37:48;;;;;;;2.03;0.70;;;;;;;;;;5005407;28;20111;-83
2021/11/19 03:40:20;;;;;;;2.53;0.50;;;;;;;;;;5005432;28;20188;-83
2021/11/19 03:42:46;;;;;;;;;;;;;;;;;;5005244;28;20061;-82
2021/11/19 03:45:15;;;;;;;2.78;0.77;;;;;;;;;;5006067;28;19995;-83
2021/11/19 03:47:43;;;;;;;2.83;0.52;;;;;;;;;;5008405;28;20068;-83
2021/11/19 03:50:14;;;;;;;3.17;0.65;;;;;;;;;;5011112;28;20120;-84
2021/11/19 03:52:41;;;;;;;2.17;0.60;;;;;;;;;;5003811;28;20061;-82
2021/11/19 03:55:11;;;;;;;1.85;0.55;;;;;;;;;;5010089;28;20058;-83
2021/11/19 03:57:38;;;;;;;2.20;0.52;;;;;;;;;;5004911;28;20127;-85
2021/11/19 04:00:24;;;;;;;3.03;0.70;;;;;;;;;;5002263;28;20058;-84
2021/11/19 04:02:52;;;;;;;3.10;0.70;;;;;;;;;;4993132;28;20073;-84
2021/11/19 04:05:18;;;;;;;1.92;0.52;;;;;;;;;;5000521;28;20062;-85
2021/11/19 04:07:45;;;;;;;2.28;0.80;;;;;;;;;;5003913;28;20627;-85
2021/11/19 04:10:12;;;;;;;0.93;0.40;;;;;;;;;;5006997;28;20061;-84
2021/11/19 04:12:39;;;;;;;2.70;0.85;;;;;;;;;;5005774;28;20030;-84
2021/11/19 04:15:07;;;;;;;3.47;0.50;;;;;;;;;;5005436;28;20053;-84
2021/11/19 04:17:34;;;;;;;2.08;0.70;;;;;;;;;;5005107;28;20053;-83
2021/11/19 04:20:00;;;;;;;3.63;0.98;;;;;;;;;;5005725;28;20740;-84
2021/11/19 04:22:26;;;;;;;1.77;0.80;;;;;;;;;;5011203;28;20064;-86
2021/11/19 04:24:54;;;;;;;2.70;0.60;;;;;;;;;;5010013;28;20062;-84
2021/11/19 04:27:21;;;;;;;1.25;0.40;;;;;;;;;;5004175;28;20058;-84
2021/11/19 04:29:48;;;;;;;2.08;0.50;;;;;;;;;;4999199;28;20062;-85
2021/11/19 04:32:21;;;;;;;4.10;0.90;;;;;;;;;;5012023;28;20474;-84
2021/11/19 04:34:47;;;;;;;2.53;0.90;;;;;;;;;;5008838;28;20085;-85
2021/11/19 04:37:13;;;;;;;2.38;0.70;;;;;;;;;;5009825;28;20085;-84
2021/11/19 04:39:40;;;;;;;1.95;0.47;;;;;;;;;;5009897;28;20037;-83
2021/11/19 04:42:07;;;;;;;2.75;0.60;;;;;;;;;;5002586;28;21799;-84
2021/11/19 04:44:34;;;;;;;3.78;0.80;;;;;;;;;;5005671;28;20100;-83
2021/11/19 04:47:01;;;;;;;3.13;0.98;;;;;;;;;;5007185;28;20065;-84
2021/11/19 04:49:27;;;;;;;2.72;0.70;;;;;;;;;;5005223;28;20050;-83
2021/11/19 04:51:54;;;;;;;1.40;0.40;;;;;;;;;;5002169;28;20073;-84
2021/11/19 04:54:23;;;;;;;2.97;0.60;;;;;;;;;;5009557;28;20080;-84
2021/11/19 04:56:51;;;;;;;2.08;0.70;;;;;;;;;;5008172;28;20058;-84
2021/11/19 04:59:18;;;;;;;2.67;0.65;;;;;;;;;;5006012;28;20795;-84
2021/11/19 05:01:48;;;;;;;2.17;0.60;;;;;;;;;;5007062;28;20744;-84
2021/11/19 05:04:15;;;;;;;2.10;0.63;;;;;;;;;;5007967;28;20513;-84
2021/11/19 05:06:42;;;;;;;2.90;1.02;;;;;;;;;;5006480;28;20104;-84
2021/11/19 05:09:09;;;;;;;1.67;0.52;;;;;;;;;;5008728;28;20058;-82
2021/11/19 05:11:43;;;;;;;2.60;0.70;;;;;;;;;;5004740;28;20544;-79
2021/11/19 05:14:10;;;;;;;5.30;0.70;;;;;;;;;;4990202;28;21444;-80
2021/11/19 05:16:37;;;;;;;2.42;0.70;;;;;;;;;;5003833;28;20026;-80
2021/11/19 05:19:04;;;;;;;1.88;0.77;;;;;;;;;;5006459;28;20659;-82
2021/11/19 05:21:31;;;;;;;2.65;0.50;;;;;;;;;;5006371;28;20604;-80
2021/11/19 05:23:57;;;;;;;2.78;0.77;;;;;;;;;;5008992;28;20119;-79
2021/11/19 05:26:27;;;;;;;1.65;0.30;;;;;;;;;;5010333;28;20081;-80
2021/11/19 05:28:53;;;;;;;2.05;0.65;;;;;;;;;;5003925;28;20096;-82
2021/11/19 05:31:20;;;;;;;4.03;0.73;;;;;;;;;;5008679;28;20562;-83
2021/11/19 05:33:46;;;;;;;1.58;0.50;;;;;;;;;;4988907;28;20066;-83
2021/11/19 05:36:13;;;;;;;2.20;0.80;;;;;;;;;;5008230;28;20576;-82
2021/11/19 05:38:40;;;;;;;1.77;0.50;;;;;;;;;;5007708;28;20054;-81
2021/11/19 05:41:08;;;;;;;2.88;0.75;;;;;;;;;;5009097;28;20061;-81
2021/11/19 05:43:35;;;;;;;4.05;1.20;;;;;;;;;;5007169;28;20058;-82
2021/11/19 05:46:01;;;;;;;5.63;0.80;;;;;;;;;;4988909;28;20682;-81
2021/11/19 05:48:28;;;;;;;2.58;0.63;;;;;;;;;;5010050;28;20034;-84
2021/11/19 05:50:54;;;;;;;4.97;0.70;;;;;;;;;;5006101;28;20056;-83
2021/11/19 05:53:21;;;;;;;2.78;0.70;;;;;;;;;;5010084;28;20076;-80
2021/11/19 05:55:48;;;;;;;2.50;1.02;;;;;;;;;;5007491;28;20465;-77
2021/11/19 05:58:15;;;;;;;6.50;0.60;;;;;;;;;;5012454;28;20505;-77
2021/11/19 06:00:43;;;;;;;2.28;0.68;;;;;;;;;;5006276;28;20785;-79
2021/11/19 06:03:10;;;;;;;3.70;0.90;;;;;;;;;;4998548;28;20046;-78
2021/11/19 06:05:36;;;;;;;3.38;0.60;;;;;;;;;;5012561;28;20155;-76
2021/11/19 06:08:03;;;;;;;2.58;0.70;;;;;;;;;;5006364;28;20072;-81
2021/11/19 06:10:31;;;;;;;3.85;0.80;;;;;;;;;;5011189;28;20077;-81
2021/11/19 06:13:08;;;;;;;2.88;0.90;;;;;;;;;;5003773;28;20765;-81
2021/11/19 06:15:36;;;;;;;2.58;0.50;;;;;;;;;;5012762;28;20060;-83
2021/11/19 06:18:06;;;;;;;2.35;0.60;;;;;;;;;;5010437;28;20482;-82
2021/11/19 06:20:37;;;;;;;3.45;0.82;;;;;;;;;;5013096;28;20072;-83
2021/11/19 06:23:06;;;;;;;3.33;0.90;;;;;;;;;;5008617;28;20037;-84
2021/11/19 06:25:34;;;;;;;2.72;1.02;;;;;;;;;;5019391;28;20619;-81
2021/11/19 06:28:03;;;;;;;1.55;0.60;;;;;;;;;;5007563;28;20146;-80
2021/11/19 06:30:30;;;;;;;7.53;0.73;;;;;;;;;;5001290;28;20069;-79
2021/11/19 06:32:57;;;;;;;2.15;0.82;;;;;;;;;;5008113;28;20068;-79
2021/11/19 06:35:24;;;;;;;3.90;1.10;;;;;;;;;;5009143;28;20061;-79
2021/11/19 06:37:50;;;;;;;4.00;1.00;;;;;;;;;;4988936;28;20056;-80
2021/11/19 06:40:19;;;;;;;6.32;0.80;;;;;;;;;;5007732;28;20123;-79
2021/11/19 06:42:46;;;;;;;2.00;0.68;;;;;;;;;;4996429;28;20587;-79
2021/11/19 06:45:15;;;;;;;1.73;0.60;;;;;;;;;;5017759;28;20181;-79
2021/11/19 06:47:42;;;;;;;1.60;0.88;;;;;;;;;;5005328;28;20061;-78
2021/11/19 06:50:08;;;;;;;3.95;0.93;;;;;;;;;;5005476;28;20062;-79
2021/11/19 06:52:35;;;;;;;3.83;0.77;;;;;;;;;;5009442;28;20073;-80
2021/11/19 06:55:01;;;;;;;3.95;0.90;;;;;;;;;;5015886;28;20057;-81
2021/11/19 06:57:28;;;;;;;3.33;0.77;;;;;;;;;;5011657;28;20069;-79
2021/11/19 06:59:54;;;;;;;3.97;1.13;;;;;;;;;;4999903;28;20462;-79
2021/11/19 07:02:20;;;;;;;5.63;0.80;;;;;;;;;;5008109;28;20060;-79
2021/11/19 07:04:47;;;;;;;3.10;0.82;;;;;;;;;;5004763;28;20065;-80
2021/11/19 07:07:14;;;;;;;2.45;0.95;;;;;;;;;;5008076;28;20066;-79
2021/11/19 07:09:41;;;;;;;5.53;0.80;;;;;;;;;;5010034;28;20065;-80
2021/11/19 07:12:09;;;;;;;1.98;0.70;;;;;;;;;;5005571;28;20259;-80
2021/11/19 07:14:35;;;;;;;3.92;0.70;;;;;;;;;;5008554;28;20057;-81
2021/11/19 07:17:04;;;;;;;4.38;0.77;;;;;;;;;;4987266;28;20582;-79
2021/11/19 07:19:32;;;;;;;4.00;1.20;;;;;;;;;;4991836;28;20053;-80
2021/11/19 07:21:58;;;;;;;2.90;0.80;;;;;;;;;;5009595;28;20383;-80
2021/11/19 07:24:25;;;;;;;3.30;1.00;;;;;;;;;;5007963;28;20437;-81
2021/11/19 07:26:51;;;;;;;5.65;0.82;;;;;;;;;;5007945;28;20062;-80
2021/11/19 07:29:18;;;;;;;3.40;0.95;;;;;;;;;;5010860;28;20603;-79
2021/11/19 07:31:44;;;;;;;3.67;0.80;;;;;;;;;;4987543;28;20066;-80
2021/11/19 07:34:11;;;;;;;4.82;0.90;;;;;;;;;;5009927;28;20051;-80
2021/11/19 07:36:37;;;;;;;2.72;0.60;;;;;;;;;;5005676;28;20062;-80
2021/11/19 07:39:05;;;;;;;5.10;1.00;;;;;;;;;;5008098;28;20064;-80
2021/11/19 07:41:32;;;;;;;3.42;0.85;;;;;;;;;;5009145;28;20309;-81
2021/11/19 07:43:58;;;;;;;2.78;0.70;;;;;;;;;;5007201;28;20128;-81
2021/11/19 07:46:26;;;;;;;3.22;0.93;;;;;;;;;;5010080;28;20482;-81
2021/11/19 07:48:53;;;;;;;5.07;0.93;;;;;;;;;;5007215;28;20069;-81
2021/11/19 07:51:21;;;;;;;3.50;0.90;;;;;;;;;;5009022;28;20065;-82
2021/11/19 07:53:49;;;;;;;2.10;0.63;;;;;;;;;;4994947;28;20069;-81
2021/11/19 07:56:17;;;;;;;3.20;0.70;;;;;;;;;;4971019;28;20026;-80
2021/11/19 07:58:44;;;;;;;2.65;1.13;;;;;;;;;;4988295;28;20479;-80
2021/11/19 08:01:11;;;;;;;3.38;0.80;;;;;;;;;;4993699;28;20062;-81
2021/11/19 08:03:37;;;;;;;4.65;1.10;;;;;;;;;;4992768;28;20054;-81
2021/11/19 08:06:04;;;;;;;2.78;0.77;;;;;;;;;;4975539;28;20057;-81
2021/11/19 08:08:32;;;;;;;3.28;1.02;;;;;;;;;;5003355;28;20076;-80
2021/11/19 08:10:59;;;;;;;3.30;0.90;;;;;;;;;;4987977;28;20066;-80
2021/11/19 08:13:25;;;;;;;2.08;0.60;;;;;;;;;;4994245;28;20065;-81
2021/11/19 08:15:52;;;;;;;4.68;1.00;;;;;;;;;;4989264;28;20128;-81
2021/11/19 08:18:23;;;;;;;5.32;1.15;;;;;;;;;;4966648;28;20122;-80
2021/11/19 08:20:51;;;;;;;2.70;1.02;;;;;;;;;;4986586;28;20130;-79
2021/11/19 08:23:22;;;;;;;5.65;0.93;;;;;;;;;;4993575;28;20062;-79
2021/11/19 08:25:49;;;;;;;3.80;1.05;;;;;;;;;;4988359;28;20644;-81
2021/11/19 08:28:16;;;;;;;2.38;0.60;;;;;;;;;;5003094;28;20092;-80
2021/11/19 08:30:45;;;;;;;3.53;0.88;;;;;;;;;;4999670;28;20074;-79
2021/11/19 08:33:12;;;;;;;4.40;0.82;;;;;;;;;;4989817;28;20093;-80
2021/11/19 08:35:42;;;;;;;4.28;0.90;;;;;;;;;;4985436;28;20030;-80
2021/11/19 08:38:13;;;;;;;5.80;1.17;;;;;;;;;;4990258;28;20038;-80
2021/11/19 08:40:44;;;;;;;4.80;0.88;;;;;;;;;;4980484;28;20081;-79
2021/11/19 08:43:12;;;;;;;3.90;1.10;;;;;;;;;;4992779;28;21395;-80
2021/11/19 08:45:38;;;;;;;5.07;0.82;;;;;;;;;;4987229;28;20710;-80
2021/11/19 08:48:05;;;;;;;3.72;1.08;;;;;;;;;;4985462;28;20104;-79
2021/11/19 08:50:32;;;;;;;3.95;0.75;;;;;;;;;;4992130;28;20061;-80
2021/11/19 08:53:00;;;;;;;5.22;1.13;;;;;;;;;;4996629;28;20097;-79
2021/11/19 08:55:27;;;;;;;3.72;0.80;;;;;;;;;;4993886;28;20053;-80
2021/11/19 08:57:55;;;;;;;3.10;0.82;;;;;;;;;;5007716;28;20101;-80
2021/11/19 09:00:26;;;;;;;3.90;0.90;;;;;;;;;;5004400;28;20054;-80
2021/11/19 09:02:54;;;;;;;2.63;0.88;;;;;;;;;;5009076;28;20575;-80
2021/11/19 09:05:20;;;;;;;3.20;1.00;;;;;;;;;;5007411;28;20057;-80
2021/11/19 09:07:47;;;;;;;2.72;0.90;;;;;;;;;;5010649;28;20128;-81
2021/11/19 09:10:15;;;;;;;4.60;1.02;;;;;;;;;;5002556;28;20053;-80
2021/11/19 09:12:41;;;;;;;4.93;1.10;;;;;;;;;;5013685;28;20697;-80
2021/11/19 09:15:10;;;;;;;2.97;0.80;;;;;;;;;;5007162;28;20149;-81
2021/11/19 09:17:39;;;;;;;3.13;1.17;;;;;;;;;;5008848;28;20062;-81
2021/11/19 09:20:19;;;;;;;3.70;0.85;;;;;;;;;;5004204;28;20054;-80
2021/11/19 09:22:53;;;;;;;3.28;1.10;;;;;;;;;;5004515;28;20049;-79
2021/11/19 09:25:20;;;;;;;6.28;1.10;;;;;;;;;;5001854;28;20498;-79
2021/11/19 09:27:47;;;;;;;2.58;1.00;;;;;;;;;;5009883;28;20058;-79
2021/11/19 09:30:16;;;;;;;4.10;0.93;;;;;;;;;;5013194;28;20080;-79
2021/11/19 09:32:44;;;;;;;4.15;1.20;;;;;;;;;;5010213;28;20038;-78
2021/11/19 09:35:10;;;;;;;3.78;0.95;;;;;;;;;;5009862;28;20073;-80
2021/11/19 09:37:37;;;;;;;4.07;0.90;;;;;;;;;;5008648;28;20065;-79
2021/11/19 09:40:03;;;;;;;4.53;0.70;;;;;;;;;;5008994;28;20050;-80
2021/11/19 09:42:42;;;;;;;3.72;1.00;;;;;;;;;;5008831;28;20065;-79
2021/11/19 09:45:21;;;;;;;3.67;1.30;;;;;;;;;;5010414;28;20117;-80
2021/11/19 09:48:05;;;;;;;5.53;1.10;;;;;;;;;;5010314;28;20128;-79
2021/11/19 09:51:01;;;;;;;4.60;0.85;;;;;;;;;;5010641;28;20054;-80
2021/11/19 09:53:46;;;;;;;3.60;0.90;;;;;;;;;;4954309;28;21446;-78
2021/11/19 09:56:24;;;;;;;4.93;1.00;;;;;;;;;;5009689;28;21292;-80
2021/11/19 09:58:53;;;;;;;5.05;1.33;;;;;;;;;;5010538;28;20096;-80
2021/11/19 10:01:26;;;;;;;3.83;0.82;;;;;;;;;;5007858;28;20058;-80
2021/11/19 10:04:06;;;;;;;3.22;0.90;;;;;;;;;;5011457;28;20065;-80
2021/11/19 10:06:50;;;;;;;5.57;1.20;;;;;;;;;;5000568;28;20109;-80
2021/11/19 10:09:16;;;;;;;3.75;1.02;;;;;;;;;;5009283;28;22290;-80
2021/11/19 10:11:55;;;;;;;4.00;1.23;;;;;;;;;;5008072;28;20054;-79
2021/11/19 10:14:30;;;;;;;4.53;1.15;;;;;;;;;;4992507;28;20510;-79
2021/11/19 10:17:06;;;;;;;4.35;0.93;;;;;;;;;;5005979;28;20115;-80
2021/11/19 10:19:39;;;;;;;3.60;0.77;;;;;;;;;;4995274;28;20210;-79
2021/11/19 10:22:24;;;;;;;3.92;1.20;;;;;;;;;;5009980;28;20084;-80
2021/11/19 10:24:57;;;;;;;3.45;0.90;;;;;;;;;;5004901;28;20108;-80
2021/11/19 10:27:34;;;;;;;3.70;1.02;;;;;;;;;;4995928;28;20069;-79
2021/11/19 10:30:12;;;;;;;6.40;1.48;;;;;;;;;;5013064;28;20084;-80
2021/11/19 10:32:39;;;;;;;5.10;1.20;;;;;;;;;;4999143;28;20497;-82
2021/11/19 10:35:17;;;;;;;3.42;1.13;;;;;;;;;;4995193;28;20089;-79
2021/11/19 10:37:44;;;;;;;4.05;1.00;;;;;;;;;;5007742;28;20041;-79
2021/11/19 10:40:37;;;;;;;3.92;1.13;;;;;;;;;;5008791;28;20494;-80
2021/11/19 10:43:17;;;;;;;2.38;0.80;;;;;;;;;;4992223;28;20532;-80
2021/11/19 10:45:52;;;;;;;2.35;0.68;;;;;;;;;;5007861;28;20623;-78
2021/11/19 10:48:24;;;;;;;5.75;1.05;;;;;;;;;;5010888;28;20061;-79
2021/11/19 10:50:57;;;;;;;5.22;1.23;;;;;;;;;;5008669;28;20053;-80
2021/11/19 10:53:42;;;;;;;6.50;1.30;;;;;;;;;;5001358;28;20045;-80
2021/11/19 10:56:20;;;;;;;5.22;1.13;;;;;;;;;;5008150;28;20506;-80
2021/11/19 10:59:01;;;;;;;2.42;1.00;;;;;;;;;;5009488;28;20065;-80
2021/11/19 11:01:47;;;;;;;4.80;1.05;;;;;;;;;;5003599;28;20038;-81
2021/11/19 11:04:18;;;;;;;3.45;1.05;;;;;;;;;;5006486;28;20087;-79
2021/11/19 11:06:52;;;;;;;3.00;0.85;;;;;;;;;;5008111;28;20537;-79
2021/11/19 11:09:24;;;;;;;4.78;1.30;;;;;;;;;;4993562;28;20107;-79
2021/11/19 11:11:55;;;;;;;3.55;0.95;;;;;;;;;;5008792;28;20110;-80
2021/11/19 11:14:22;;;;;;;5.18;1.10;;;;;;;;;;5008667;28;20675;-81
2021/11/19 11:16:50;;;;;;;2.50;0.68;;;;;;;;;;5007774;28;20057;-81
2021/11/19 11:19:19;;;;;;;4.25;1.02;;;;;;;;;;5012094;28;20056;-80
2021/11/19 11:21:55;;;;;;;5.20;1.10;;;;;;;;;;5006040;28;20054;-79
2021/11/19 11:24:22;;;;;;;4.57;1.00;;;;;;;;;;4996946;28;20058;-80
2021/11/19 11:26:51;;;;;;;3.13;0.90;;;;;;;;;;5011605;28;20065;-79
2021/11/19 11:29:18;;;;;;;2.90;0.90;;;;;;;;;;5007113;28;21297;-80
2021/11/19 11:32:04;;;;;;;5.50;1.40;;;;;;;;;;5008462;28;20065;-80
2021/11/19 11:34:34;;;;;;;5.53;0.93;;;;;;;;;;4994342;28;20084;-81
2021/11/19 11:37:21;;;;;;;2.83;0.93;;;;;;;;;;5007554;28;20065;-79
2021/11/19 11:39:55;;;;;;;3.00;0.90;;;;;;;;;;5006736;28;20097;-79
2021/11/19 11:42:23;;;;;;;4.18;1.05;;;;;;;;;;5002151;28;20058;-79
2021/11/19 11:44:51;;;;;;;3.95;1.00;;;;;;;;;;5003670;28;20050;-79
2021/11/19 11:47:30;;;;;;;4.65;1.05;;;;;;;;;;5008308;28;20081;-79
2021/11/19 11:50:02;;;;;;;5.30;1.20;;;;;;;;;;5008860;28;20490;-79
2021/11/19 11:52:37;;;;;;;3.97;0.95;;;;;;;;;;5011843;28;20070;-79
2021/11/19 11:55:22;;;;;;;7.20;1.50;;;;;;;;;;5006852;28;20101;-79
2021/11/19 11:57:48;;;;;;;3.10;0.82;;;;;;;;;;5006311;28;20135;-78
2021/11/19 12:00:27;;;;;;;4.50;0.90;;;;;;;;;;4989697;28;20061;-79
2021/11/19 12:02:54;;;;;;;5.57;1.45;;;;;;;;;;5002190;28;20077;-78
2021/11/19 12:05:38;;;;;;;5.07;1.10;;;;;;;;;;5001167;28;20116;-79
2021/11/19 12:08:10;;;;;;;3.35;1.00;;;;;;;;;;5001055;28;20066;-79
2021/11/19 12:10:55;;;;;;;4.47;1.00;;;;;;;;;;5001947;28;20053;-79
2021/11/19 12:13:30;;;;;;;4.68;1.02;;;;;;;;;;5005099;28;20581;-79
2021/11/19 12:15:57;;;;;;;3.63;1.15;;;;;;;;;;5002141;28;20067;-80
2021/11/19 12:18:41;;;;;;;4.32;0.90;;;;;;;;;;5007125;28;20077;-79
2021/11/19 12:21:07;;;;;;;3.92;0.95;;;;;;;;;;5005576;28;20087;-80
2021/11/19 12:23:56;;;;;;;3.35;1.08;;;;;;;;;;5008307;28;20066;-80
2021/11/19 12:26:41;;;;;;;5.00;1.20;;;;;;;;;;5007174;28;21393;-79
2021/11/19 12:29:17;;;;;;;3.97;1.27;;;;;;;;;;4998128;28;20152;-79
2021/11/19 12:32:02;;;;;;;4.93;1.17;;;;;;;;;;5005150;28;20058;-78
2021/11/19 12:34:36;;;;;;;5.32;1.15;;;;;;;;;;5008253;28;20069;-79
2021/11/19 12:37:05;;;;;;;5.03;1.30;;;;;;;;;;5005918;28;20471;-79
2021/11/19 12:39:39;;;;;;;6.30;1.20;;;;;;;;;;5007335;28;20062;-80
2021/11/19 12:42:24;;;;;;;3.85;1.30;;;;;;;;;;4996656;28;20060;-79
2021/11/19 12:45:00;;;;;;;4.30;0.90;;;;;;;;;;5009436;28;20050;-79
2021/11/19 12:47:45;;;;;;;2.75;0.88;;;;;;;;;;4991763;28;20030;-79
2021/11/19 12:50:25;;;;;;;3.08;1.00;;;;;;;;;;5010280;28;21719;-80
2021/11/19 12:53:10;;;;;;;2.63;0.98;;;;;;;;;;5012583;28;20115;-78
2021/11/19 12:55:40;;;;;;;4.93;0.98;;;;;;;;;;5009174;28;20450;-80
2021/11/19 12:58:25;;;;;;;5.80;0.98;;;;;;;;;;5008437;28;20062;-80
2021/11/19 13:00:52;;;;;;;3.90;1.05;;;;;;;;;;5008911;28;20662;-79
2021/11/19 13:03:34;;;;;;;6.07;1.10;;;;;;;;;;4993058;28;20108;-80
2021/11/19 13:06:00;;;;;;;4.15;1.00;;;;;;;;;;5007847;28;20045;-80
2021/11/19 13:08:41;;;;;;;5.15;0.90;;;;;;;;;;4997866;28;20057;-79
2021/11/19 13:11:20;;;;;;;3.90;1.10;;;;;;;;;;5009028;28;20088;-80
2021/11/19 13:13:46;;;;;;;3.53;0.80;;;;;;;;;;5005358;28;20128;-80
2021/11/19 13:16:31;;;;;;;2.75;0.88;;;;;;;;;;5012078;28;20077;-80
2021/11/19 13:18:58;;;;;;;3.20;1.10;;;;;;;;;;5007698;28;20069;-80
2021/11/19 13:21:34;;;;;;;4.80;1.00;;;;;;;;;;5009227;28;20500;-80
2021/11/19 13:24:13;;;;;;;3.67;1.20;;;;;;;;;;5006967;28;20069;-79
2021/11/19 13:26:42;;;;;;;5.20;0.90;;;;;;;;;;5010965;28;20060;-79
2021/11/19 13:29:28;;;;;;;3.70;0.98;;;;;;;;;;5009133;28;20058;-80
2021/11/19 13:31:55;;;;;;;3.20;0.80;;;;;;;;;;4984158;28;20057;-80
2021/11/19 13:34:25;;;;;;;4.32;1.10;;;;;;;;;;5009506;28;20497;-80
2021/11/19 13:37:11;;;;;;;4.03;0.85;;;;;;;;;;5006213;28;20498;-80
2021/11/19 13:39:38;;;;;;;5.70;1.10;;;;;;;;;;5001195;28;20050;-80
2021/11/19 13:42:07;;;;;;;2.60;0.70;;;;;;;;;;5009486;28;20033;-79
2021/11/19 13:44:47;;;;;;;5.70;1.27;;;;;;;;;;5009543;28;20100;-81
2021/11/19 13:47:33;;;;;;;3.65;1.02;;;;;;;;;;5008696;28;20517;-80
2021/11/19 13:50:20;;;;;;;5.57;1.23;;;;;;;;;;5010001;28;20029;-80
2021/11/19 13:52:53;;;;;;;6.32;1.20;;;;;;;;;;5006890;28;20099;-79
2021/11/19 13:55:19;;;;;;;3.47;1.05;;;;;;;;;;5010212;28;20073;-80
2021/11/19 13:57:52;;;;;;;4.30;0.98;;;;;;;;;;5006239;28;20053;-78
2021/11/19 14:00:22;;;;;;;2.53;0.90;;;;;;;;;;5006860;28;20084;-80
2021/11/19 14:02:51;;;;;;;3.67;1.15;;;;;;;;;;4996745;28;20068;-81
2021/11/19 14:05:19;;;;;;;4.85;1.33;;;;;;;;;;5008464;28;20088;-80
2021/11/19 14:07:50;;;;;;;9.32;1.08;;;;;;;;;;5009405;28;20119;-80
2021/11/19 14:10:23;;;;;;;3.67;1.50;;;;;;;;;;4993645;28;20045;-80
2021/11/19 14:12:54;;;;;;;4.07;1.13;;;;;;;;;;5006791;28;20073;-82
2021/11/19 14:15:24;;;;;;;4.93;1.13;;;;;;;;;;5008352;28;20073;-80
2021/11/19 14:17:56;;;;;;;3.22;0.88;;;;;;;;;;4997231;28;20109;-80
2021/11/19 14:23:14;;;;;;;6.50;1.23;;;;;;;;;;5007451;28;20391;-80
2021/11/19 14:25:42;;;;;;;4.88;0.98;;;;;;;;;;5004992;28;20516;-80
2021/11/19 14:28:17;;;;;;;4.05;1.00;;;;;;;;;;5002759;28;20116;-79
2021/11/19 14:30:44;;;;;;;3.47;1.02;;;;;;;;;;5004796;28;20513;-79
2021/11/19 14:33:32;;;;;;;6.38;1.52;;;;;;;;;;5004096;28;21443;-80
2021/11/19 14:36:01;;;;;;;5.78;1.27;;;;;;;;;;5003876;28;20107;-81
2021/11/19 14:38:30;;;;;;;3.78;1.00;;;;;;;;;;5003390;28;20056;-81
2021/11/19 14:41:16;;;;;;;6.97;1.50;;;;;;;;;;5006333;28;21354;-78
2021/11/19 14:43:44;;;;;;;4.68;1.38;;;;;;;;;;5005276;28;20050;-80
2021/11/19 14:46:16;;;;;;;4.32;1.25;;;;;;;;;;5005427;28;21299;-80
2021/11/19 14:48:43;;;;;;;3.22;0.93;;;;;;;;;;5009352;28;20042;-81
2021/11/19 14:51:28;;;;;;;3.50;1.30;;;;;;;;;;5006899;28;20489;-80
2021/11/19 14:53:56;;;;;;;4.57;1.10;;;;;;;;;;5001693;28;20069;-80
2021/11/19 14:56:25;;;;;;;5.53;1.02;;;;;;;;;;4986235;28;20073;-81
2021/11/19 14:58:57;;;;;;;4.85;1.35;;;;;;;;;;4988795;28;20694;-80
2021/11/19 15:01:23;;;;;;;;;;;;;;;;;;4989297;28;20054;-80
2021/11/19 15:03:51;;;;;;;6.25;1.20;;;;;;;;;;4988483;28;20543;-79
2021/11/19 15:06:20;;;;;;;4.85;1.35;;;;;;;;;;4988320;28;20573;-80